sensor_id;sensor_type;location;lat;lon;timestamp;pressure;altitude;pressure_sealevel;temperature;humidity
52105;BME280;38103;42.776;23.112;2022-10-04T00:00:49;94198.94;;;8.15;90.54
52105;BME280;38103;42.776;23.112;2022-10-04T00:03:25;94193.69;;;8.15;90.39
52105;BME280;38103;42.776;23.112;2022-10-04T00:05:54;94198.28;;;8.20;89.85
52105;BME280;38103;42.776;23.112;2022-10-04T00:08:25;94200.56;;;8.16;90.53
52105;BME280;38103;42.776;23.112;2022-10-04T00:11:04;94198.53;;;8.19;90.46
52105;BME280;38103;42.776;23.112;2022-10-04T00:13:30;94201.91;;;8.26;90.36
52105;BME280;38103;42.776;23.112;2022-10-04T00:15:57;94204.28;;;8.34;90.06
52105;BME280;38103;42.776;23.112;2022-10-04T00:18:40;94203.00;;;8.44;89.93
52105;BME280;38103;42.776;23.112;2022-10-04T00:21:09;94199.72;;;8.48;89.16
52105;BME280;38103;42.776;23.112;2022-10-04T00:28:50;94189.59;;;8.45;88.00
52105;BME280;38103;42.776;23.112;2022-10-04T00:31:22;94188.97;;;8.50;87.80
52105;BME280;38103;42.776;23.112;2022-10-04T00:36:38;94186.28;;;8.57;86.99
52105;BME280;38103;42.776;23.112;2022-10-04T00:46:48;94188.50;;;8.27;87.76
52105;BME280;38103;42.776;23.112;2022-10-04T00:49:18;94188.16;;;8.24;87.81
52105;BME280;38103;42.776;23.112;2022-10-04T00:52:04;94181.25;;;8.23;87.79
52105;BME280;38103;42.776;23.112;2022-10-04T00:54:36;94172.78;;;8.21;87.74
52105;BME280;38103;42.776;23.112;2022-10-04T00:57:10;94170.38;;;8.19;87.75
52105;BME280;38103;42.776;23.112;2022-10-04T00:59:46;94159.44;;;8.15;87.74
52105;BME280;38103;42.776;23.112;2022-10-04T01:05:07;94168.03;;;8.04;88.15
52105;BME280;38103;42.776;23.112;2022-10-04T01:07:41;94166.06;;;7.92;88.61
52105;BME280;38103;42.776;23.112;2022-10-04T01:20:33;94153.56;;;7.81;88.71
52105;BME280;38103;42.776;23.112;2022-10-04T01:23:02;94150.41;;;7.72;89.05
52105;BME280;38103;42.776;23.112;2022-10-04T01:25:48;94148.78;;;7.71;89.11
52105;BME280;38103;42.776;23.112;2022-10-04T01:28:14;94081.19;;;7.32;88.79
52105;BME280;38103;42.776;23.112;2022-10-04T01:30:41;94151.63;;;7.69;89.03
52105;BME280;38103;42.776;23.112;2022-10-04T01:33:07;94147.78;;;7.72;88.54
52105;BME280;38103;42.776;23.112;2022-10-04T01:35:33;94153.66;;;7.67;88.86
52105;BME280;38103;42.776;23.112;2022-10-04T01:38:03;94141.94;;;7.63;89.13
52105;BME280;38103;42.776;23.112;2022-10-04T01:40:40;94139.75;;;7.53;89.71
52105;BME280;38103;42.776;23.112;2022-10-04T01:43:12;94153.91;;;7.59;89.71
52105;BME280;38103;42.776;23.112;2022-10-04T01:45:42;94160.19;;;7.58;90.20
52105;BME280;38103;42.776;23.112;2022-10-04T01:48:14;94150.88;;;7.62;90.10
52105;BME280;38103;42.776;23.112;2022-10-04T01:50:57;94151.28;;;7.59;90.36
52105;BME280;38103;42.776;23.112;2022-10-04T01:53:33;94154.50;;;7.61;90.49
52105;BME280;38103;42.776;23.112;2022-10-04T01:56:07;94156.13;;;7.62;90.45
52105;BME280;38103;42.776;23.112;2022-10-04T01:58:42;94158.75;;;7.62;90.30
52105;BME280;38103;42.776;23.112;2022-10-04T02:01:15;94154.09;;;7.64;90.31
52105;BME280;38103;42.776;23.112;2022-10-04T02:03:54;94158.53;;;7.64;90.36
52105;BME280;38103;42.776;23.112;2022-10-04T02:06:23;94160.75;;;7.67;90.25
52105;BME280;38103;42.776;23.112;2022-10-04T02:08:50;94152.84;;;7.67;90.54
52105;BME280;38103;42.776;23.112;2022-10-04T02:11:22;94150.88;;;7.62;90.76
52105;BME280;38103;42.776;23.112;2022-10-04T02:13:53;94152.91;;;7.60;90.86
52105;BME280;38103;42.776;23.112;2022-10-04T02:16:20;94144.84;;;7.55;91.11
52105;BME280;38103;42.776;23.112;2022-10-04T02:18:48;94150.69;;;7.57;91.34
52105;BME280;38103;42.776;23.112;2022-10-04T02:21:16;94148.66;;;7.59;91.25
52105;BME280;38103;42.776;23.112;2022-10-04T02:23:43;94100.03;;;7.29;91.19
52105;BME280;38103;42.776;23.112;2022-10-04T02:26:10;94159.34;;;7.64;91.05
52105;BME280;38103;42.776;23.112;2022-10-04T02:28:36;94152.91;;;7.60;91.15
52105;BME280;38103;42.776;23.112;2022-10-04T02:31:03;94161.38;;;7.62;91.25
52105;BME280;38103;42.776;23.112;2022-10-04T02:33:49;94166.25;;;7.65;90.80
52105;BME280;38103;42.776;23.112;2022-10-04T02:36:16;94169.88;;;7.64;90.90
52105;BME280;38103;42.776;23.112;2022-10-04T02:38:48;94145.25;;;7.52;90.94
52105;BME280;38103;42.776;23.112;2022-10-04T02:41:24;94171.31;;;7.60;90.99
52105;BME280;38103;42.776;23.112;2022-10-04T02:44:19;94166.66;;;7.62;90.73
52105;BME280;38103;42.776;23.112;2022-10-04T02:46:50;94172.75;;;7.56;91.49
52105;BME280;38103;42.776;23.112;2022-10-04T02:49:38;94114.25;;;7.21;91.63
52105;BME280;38103;42.776;23.112;2022-10-04T02:52:09;94184.91;;;7.50;91.94
52105;BME280;38103;42.776;23.112;2022-10-04T02:54:39;94178.84;;;7.49;92.13
52105;BME280;38103;42.776;23.112;2022-10-04T02:57:17;94171.97;;;7.48;92.26
52105;BME280;38103;42.776;23.112;2022-10-04T02:59:43;94173.59;;;7.49;92.54
52105;BME280;38103;42.776;23.112;2022-10-04T03:02:27;94186.16;;;7.41;93.32
52105;BME280;38103;42.776;23.112;2022-10-04T03:04:57;94197.91;;;7.38;93.20
52105;BME280;38103;42.776;23.112;2022-10-04T03:07:24;94174.00;;;7.46;92.67
52105;BME280;38103;42.776;23.112;2022-10-04T03:09:51;94186.34;;;7.46;92.30
52105;BME280;38103;42.776;23.112;2022-10-04T03:12:17;94183.72;;;7.46;92.25
52105;BME280;38103;42.776;23.112;2022-10-04T03:14:44;94184.31;;;7.48;92.13
52105;BME280;38103;42.776;23.112;2022-10-04T03:17:10;94168.78;;;7.33;92.28
52105;BME280;38103;42.776;23.112;2022-10-04T03:19:35;94159.94;;;7.20;92.72
52105;BME280;38103;42.776;23.112;2022-10-04T03:22:10;94184.16;;;7.36;92.58
52105;BME280;38103;42.776;23.112;2022-10-04T03:24:47;94123.44;;;6.98;92.64
52105;BME280;38103;42.776;23.112;2022-10-04T03:27:43;94185.78;;;7.30;92.91
52105;BME280;38103;42.776;23.112;2022-10-04T03:30:13;94186.63;;;7.31;92.95
52105;BME280;38103;42.776;23.112;2022-10-04T03:32:39;94189.06;;;7.25;93.42
52105;BME280;38103;42.776;23.112;2022-10-04T03:35:07;94190.25;;;7.30;93.19
52105;BME280;38103;42.776;23.112;2022-10-04T03:37:42;94154.13;;;7.04;93.30
52105;BME280;38103;42.776;23.112;2022-10-04T03:40:08;94193.91;;;7.29;93.64
52105;BME280;38103;42.776;23.112;2022-10-04T03:42:35;94201.38;;;7.32;93.65
52105;BME280;38103;42.776;23.112;2022-10-04T03:45:15;94200.16;;;7.28;93.74
52105;BME280;38103;42.776;23.112;2022-10-04T03:47:44;94198.75;;;7.32;93.50
52105;BME280;38103;42.776;23.112;2022-10-04T03:50:15;94205.44;;;7.28;93.70
52105;BME280;38103;42.776;23.112;2022-10-04T03:52:47;94194.34;;;7.19;93.96
52105;BME280;38103;42.776;23.112;2022-10-04T03:55:15;94172.94;;;7.01;94.32
52105;BME280;38103;42.776;23.112;2022-10-04T03:57:41;94204.03;;;7.25;94.15
52105;BME280;38103;42.776;23.112;2022-10-04T04:00:07;94200.38;;;7.19;93.96
52105;BME280;38103;42.776;23.112;2022-10-04T04:02:37;94202.03;;;7.13;94.09
52105;BME280;38103;42.776;23.112;2022-10-04T04:05:19;94200.00;;;7.15;93.69
52105;BME280;38103;42.776;23.112;2022-10-04T04:08:11;94197.56;;;7.14;93.27
52105;BME280;38103;42.776;23.112;2022-10-04T04:10:45;94203.47;;;7.16;92.80
52105;BME280;38103;42.776;23.112;2022-10-04T04:13:28;94201.22;;;7.13;92.64
52105;BME280;38103;42.776;23.112;2022-10-04T04:15:55;94203.66;;;7.14;92.04
52105;BME280;38103;42.776;23.112;2022-10-04T04:18:28;94206.91;;;7.10;91.96
52105;BME280;38103;42.776;23.112;2022-10-04T04:20:55;94215.59;;;7.10;92.17
52105;BME280;38103;42.776;23.112;2022-10-04T04:23:33;94217.81;;;7.13;92.03
52105;BME280;38103;42.776;23.112;2022-10-04T04:31:49;94225.31;;;7.10;92.66
52105;BME280;38103;42.776;23.112;2022-10-04T04:36:41;94226.72;;;7.12;92.31
52105;BME280;38103;42.776;23.112;2022-10-04T04:39:18;94227.13;;;7.16;92.50
52105;BME280;38103;42.776;23.112;2022-10-04T04:44:48;94233.97;;;7.17;92.60
52105;BME280;38103;42.776;23.112;2022-10-04T04:47:30;94248.16;;;7.16;93.03
52105;BME280;38103;42.776;23.112;2022-10-04T04:50:04;94236.81;;;7.22;92.70
52105;BME280;38103;42.776;23.112;2022-10-04T04:52:30;94238.44;;;7.23;92.52
52105;BME280;38103;42.776;23.112;2022-10-04T04:54:56;94244.88;;;7.28;92.47
52105;BME280;38103;42.776;23.112;2022-10-04T04:57:22;94250.94;;;7.35;92.47
52105;BME280;38103;42.776;23.112;2022-10-04T04:59:52;94250.53;;;7.38;92.58
52105;BME280;38103;42.776;23.112;2022-10-04T05:02:27;94246.81;;;7.53;92.20
52105;BME280;38103;42.776;23.112;2022-10-04T05:05:13;94256.47;;;7.73;91.55
52105;BME280;38103;42.776;23.112;2022-10-04T05:07:39;94256.34;;;8.00;90.80
52105;BME280;38103;42.776;23.112;2022-10-04T05:10:27;94256.56;;;8.37;89.33
52105;BME280;38103;42.776;23.112;2022-10-04T05:12:54;94262.00;;;8.75;87.55
52105;BME280;38103;42.776;23.112;2022-10-04T05:15:20;94251.19;;;9.02;84.96
52105;BME280;38103;42.776;23.112;2022-10-04T05:17:46;94260.56;;;9.43;83.53
52105;BME280;38103;42.776;23.112;2022-10-04T05:20:14;94271.63;;;9.70;82.60
52105;BME280;38103;42.776;23.112;2022-10-04T05:22:44;94273.66;;;10.06;81.11
52105;BME280;38103;42.776;23.112;2022-10-04T05:27:51;94248.81;;;10.69;78.48
52105;BME280;38103;42.776;23.112;2022-10-04T05:33:13;94252.06;;;11.43;75.41
52105;BME280;38103;42.776;23.112;2022-10-04T05:38:42;94259.69;;;11.93;72.86
52105;BME280;38103;42.776;23.112;2022-10-04T05:43:48;94256.88;;;12.00;72.22
52105;BME280;38103;42.776;23.112;2022-10-04T05:46:24;94261.59;;;12.39;71.26
52105;BME280;38103;42.776;23.112;2022-10-04T05:48:55;94262.97;;;12.42;70.57
52105;BME280;38103;42.776;23.112;2022-10-04T05:51:24;94269.81;;;12.55;69.39
52105;BME280;38103;42.776;23.112;2022-10-04T05:53:57;94272.50;;;12.72;69.21
52105;BME280;38103;42.776;23.112;2022-10-04T05:59:17;94285.53;;;12.91;68.38
52105;BME280;38103;42.776;23.112;2022-10-04T06:04:31;94288.34;;;13.01;67.48
52105;BME280;38103;42.776;23.112;2022-10-04T06:12:38;94293.75;;;13.81;65.31
52105;BME280;38103;42.776;23.112;2022-10-04T06:15:30;94279.63;;;14.03;63.84
52105;BME280;38103;42.776;23.112;2022-10-04T06:20:57;94308.81;;;13.98;63.93
52105;BME280;38103;42.776;23.112;2022-10-04T06:23:29;94296.72;;;14.07;63.56
52105;BME280;38103;42.776;23.112;2022-10-04T06:25:58;94307.00;;;14.26;61.53
52105;BME280;38103;42.776;23.112;2022-10-04T06:28:30;94323.69;;;14.44;60.91
52105;BME280;38103;42.776;23.112;2022-10-04T06:53:01;94314.91;;;14.43;59.70
52105;BME280;38103;42.776;23.112;2022-10-04T06:55:56;94322.09;;;14.43;58.06
52105;BME280;38103;42.776;23.112;2022-10-04T07:01:22;94301.63;;;14.21;58.01
52105;BME280;38103;42.776;23.112;2022-10-04T07:04:00;94302.53;;;14.04;58.94
52105;BME280;38103;42.776;23.112;2022-10-04T07:06:38;94307.34;;;14.07;59.32
52105;BME280;38103;42.776;23.112;2022-10-04T07:09:06;94308.38;;;14.06;59.01
52105;BME280;38103;42.776;23.112;2022-10-04T07:12:04;94308.75;;;14.15;58.14
52105;BME280;38103;42.776;23.112;2022-10-04T07:14:38;94302.25;;;14.28;55.73
52105;BME280;38103;42.776;23.112;2022-10-04T07:17:12;94318.97;;;14.01;54.74
52105;BME280;38103;42.776;23.112;2022-10-04T07:19:41;94317.38;;;13.60;56.86
52105;BME280;38103;42.776;23.112;2022-10-04T07:22:21;94340.47;;;13.07;57.25
52105;BME280;38103;42.776;23.112;2022-10-04T07:25:06;94347.06;;;12.58;58.54
52105;BME280;38103;42.776;23.112;2022-10-04T07:33:50;94375.78;;;11.84;62.12
52105;BME280;38103;42.776;23.112;2022-10-04T07:36:38;94386.25;;;11.91;61.94
52105;BME280;38103;42.776;23.112;2022-10-04T07:39:11;94391.13;;;11.82;61.18
52105;BME280;38103;42.776;23.112;2022-10-04T07:41:47;94382.13;;;11.95;62.26
52105;BME280;38103;42.776;23.112;2022-10-04T07:44:36;94389.53;;;12.46;62.22
52105;BME280;38103;42.776;23.112;2022-10-04T07:47:24;94377.53;;;13.02;59.72
52105;BME280;38103;42.776;23.112;2022-10-04T07:49:54;94381.69;;;13.62;58.54
52105;BME280;38103;42.776;23.112;2022-10-04T07:52:43;94390.88;;;14.11;55.26
52105;BME280;38103;42.776;23.112;2022-10-04T08:01:07;94380.81;;;14.58;53.23
52105;BME280;38103;42.776;23.112;2022-10-04T08:06:30;94389.25;;;15.05;51.99
52105;BME280;38103;42.776;23.112;2022-10-04T08:12:05;94383.84;;;15.23;51.80
52105;BME280;38103;42.776;23.112;2022-10-04T08:14:45;94384.44;;;15.30;50.91
52105;BME280;38103;42.776;23.112;2022-10-04T08:25:46;94383.25;;;15.48;50.53
52105;BME280;38103;42.776;23.112;2022-10-04T08:32:05;94380.34;;;14.89;49.78
52105;BME280;38103;42.776;23.112;2022-10-04T08:37:34;94374.56;;;13.85;52.98
52105;BME280;38103;42.776;23.112;2022-10-04T09:16:45;94391.53;;;12.27;60.67
52105;BME280;38103;42.776;23.112;2022-10-04T09:38:06;94405.53;;;14.36;55.46
52105;BME280;38103;42.776;23.112;2022-10-04T09:41:03;94402.31;;;14.57;54.85
52105;BME280;38103;42.776;23.112;2022-10-04T09:47:05;94396.34;;;14.72;57.60
52105;BME280;38103;42.776;23.112;2022-10-04T10:00:36;94381.84;;;14.57;53.90
52105;BME280;38103;42.776;23.112;2022-10-04T10:06:12;94386.97;;;14.41;54.29
52105;BME280;38103;42.776;23.112;2022-10-04T10:09:06;94377.84;;;14.32;52.97
52105;BME280;38103;42.776;23.112;2022-10-04T10:15:12;94402.94;;;13.62;54.15
52105;BME280;38103;42.776;23.112;2022-10-04T10:25:45;94386.75;;;12.82;57.53
52105;BME280;38103;42.776;23.112;2022-10-04T10:34:03;94419.72;;;12.87;57.95
52105;BME280;38103;42.776;23.112;2022-10-04T10:41:51;94418.78;;;12.93;59.17
52105;BME280;38103;42.776;23.112;2022-10-04T11:00:46;94410.72;;;14.26;53.16
52105;BME280;38103;42.776;23.112;2022-10-04T11:03:53;94404.59;;;14.25;54.17
52105;BME280;38103;42.776;23.112;2022-10-04T11:49:54;94420.38;;;14.32;54.36
52105;BME280;38103;42.776;23.112;2022-10-04T12:00:22;94418.06;;;14.58;52.75
52105;BME280;38103;42.776;23.112;2022-10-04T12:06:02;94414.44;;;14.70;53.84
52105;BME280;38103;42.776;23.112;2022-10-04T12:14:42;94414.88;;;14.84;55.60
52105;BME280;38103;42.776;23.112;2022-10-04T12:17:41;94424.16;;;14.81;50.70
52105;BME280;38103;42.776;23.112;2022-10-04T12:31:55;94440.06;;;14.76;50.61
52105;BME280;38103;42.776;23.112;2022-10-04T12:34:31;94434.50;;;14.78;51.17
52105;BME280;38103;42.776;23.112;2022-10-04T12:37:11;94433.25;;;14.85;53.05
52105;BME280;38103;42.776;23.112;2022-10-04T12:45:43;94431.16;;;14.88;50.84
52105;BME280;38103;42.776;23.112;2022-10-04T12:48:23;94433.88;;;14.93;51.11
52105;BME280;38103;42.776;23.112;2022-10-04T12:53:35;94433.72;;;14.82;52.11
52105;BME280;38103;42.776;23.112;2022-10-04T13:01:34;94423.63;;;14.84;50.79
52105;BME280;38103;42.776;23.112;2022-10-04T13:04:18;94410.91;;;14.64;51.52
52105;BME280;38103;42.776;23.112;2022-10-04T13:15:27;94421.88;;;14.68;51.05
52105;BME280;38103;42.776;23.112;2022-10-04T13:20:43;94430.91;;;14.67;52.49
52105;BME280;38103;42.776;23.112;2022-10-04T13:23:34;94426.69;;;14.71;51.76
52105;BME280;38103;42.776;23.112;2022-10-04T13:26:04;94421.88;;;14.68;51.86
52105;BME280;38103;42.776;23.112;2022-10-04T13:32:10;94427.28;;;14.50;51.57
52105;BME280;38103;42.776;23.112;2022-10-04T13:42:48;94439.91;;;14.21;53.21
52105;BME280;38103;42.776;23.112;2022-10-04T13:45:22;94440.75;;;14.04;52.87
52105;BME280;38103;42.776;23.112;2022-10-04T14:19:04;94468.75;;;12.84;58.47
52105;BME280;38103;42.776;23.112;2022-10-04T14:24:46;94470.34;;;12.97;58.36
52105;BME280;38103;42.776;23.112;2022-10-04T14:30:34;94473.41;;;12.77;58.53
52105;BME280;38103;42.776;23.112;2022-10-04T14:33:14;94470.66;;;12.71;59.29
52105;BME280;38103;42.776;23.112;2022-10-04T14:35:48;94465.84;;;12.56;59.67
52105;BME280;38103;42.776;23.112;2022-10-04T14:58:30;94503.06;;;11.89;64.91
52105;BME280;38103;42.776;23.112;2022-10-04T15:06:13;94504.22;;;11.93;64.16
52105;BME280;38103;42.776;23.112;2022-10-04T15:09:22;94510.56;;;11.92;64.11
52105;BME280;38103;42.776;23.112;2022-10-04T15:11:56;94517.47;;;11.93;64.85
52105;BME280;38103;42.776;23.112;2022-10-04T15:14:38;94517.94;;;11.90;64.71
52105;BME280;38103;42.776;23.112;2022-10-04T15:17:09;94521.63;;;11.89;65.03
52105;BME280;38103;42.776;23.112;2022-10-04T15:20:04;94511.13;;;11.94;65.06
52105;BME280;38103;42.776;23.112;2022-10-04T15:22:43;94526.69;;;11.91;65.08
52105;BME280;38103;42.776;23.112;2022-10-04T15:28:35;94528.19;;;11.99;65.38
52105;BME280;38103;42.776;23.112;2022-10-04T15:38:57;94539.97;;;12.03;65.55
52105;BME280;38103;42.776;23.112;2022-10-04T15:41:44;94540.97;;;12.02;65.63
52105;BME280;38103;42.776;23.112;2022-10-04T15:47:11;94549.06;;;11.95;65.88
52105;BME280;38103;42.776;23.112;2022-10-04T15:55:49;94561.69;;;11.81;67.13
52105;BME280;38103;42.776;23.112;2022-10-04T16:01:05;94565.69;;;11.71;66.77
52105;BME280;38103;42.776;23.112;2022-10-04T16:06:27;94568.22;;;11.66;67.81
52105;BME280;38103;42.776;23.112;2022-10-04T16:11:48;94579.44;;;11.49;67.35
52105;BME280;38103;42.776;23.112;2022-10-04T16:22:17;94593.06;;;11.34;68.92
52105;BME280;38103;42.776;23.112;2022-10-04T16:30:03;94595.22;;;11.25;69.30
52105;BME280;38103;42.776;23.112;2022-10-04T16:32:37;94563.78;;;10.98;69.22
52105;BME280;38103;42.776;23.112;2022-10-04T16:35:24;94592.50;;;11.13;69.30
52105;BME280;38103;42.776;23.112;2022-10-04T16:45:47;94608.69;;;10.86;71.03
52105;BME280;38103;42.776;23.112;2022-10-04T16:48:29;94611.56;;;10.84;71.06
52105;BME280;38103;42.776;23.112;2022-10-04T16:51:17;94622.56;;;10.81;71.07
52105;BME280;38103;42.776;23.112;2022-10-04T16:56:17;94623.50;;;10.68;71.98
52105;BME280;38103;42.776;23.112;2022-10-04T16:58:56;94627.97;;;10.68;72.68
52105;BME280;38103;42.776;23.112;2022-10-04T17:17:40;94643.91;;;10.61;74.32
52105;BME280;38103;42.776;23.112;2022-10-04T17:20:28;94649.41;;;10.59;74.25
52105;BME280;38103;42.776;23.112;2022-10-04T17:24:03;94654.53;;;10.54;74.39
52105;BME280;38103;42.776;23.112;2022-10-04T17:26:19;94650.03;;;10.29;75.60
52105;BME280;38103;42.776;23.112;2022-10-04T17:48:47;94681.00;;;9.89;76.21
52105;BME280;38103;42.776;23.112;2022-10-04T17:51:48;94684.28;;;9.78;76.95
52105;BME280;38103;42.776;23.112;2022-10-04T17:57:50;94688.84;;;9.57;78.56
52105;BME280;38103;42.776;23.112;2022-10-04T18:00:21;94693.31;;;9.63;77.67
52105;BME280;38103;42.776;23.112;2022-10-04T18:03:12;94693.69;;;9.67;78.03
52105;BME280;38103;42.776;23.112;2022-10-04T18:10:59;94709.59;;;9.92;76.05
52105;BME280;38103;42.776;23.112;2022-10-04T18:13:33;94708.19;;;9.97;76.28
52105;BME280;38103;42.776;23.112;2022-10-04T18:16:15;94714.66;;;10.01;76.07
52105;BME280;38103;42.776;23.112;2022-10-04T18:18:46;94707.31;;;10.03;75.74
52105;BME280;38103;42.776;23.112;2022-10-04T18:21:19;94713.63;;;10.02;75.43
52105;BME280;38103;42.776;23.112;2022-10-04T18:24:20;94723.00;;;9.98;76.48
52105;BME280;38103;42.776;23.112;2022-10-04T18:26:59;94723.56;;;10.06;76.05
52105;BME280;38103;42.776;23.112;2022-10-04T18:29:40;94677.38;;;9.77;75.52
52105;BME280;38103;42.776;23.112;2022-10-04T18:32:31;94704.72;;;9.96;75.76
52105;BME280;38103;42.776;23.112;2022-10-04T18:35:15;94728.22;;;10.11;76.07
52105;BME280;38103;42.776;23.112;2022-10-04T18:37:42;94723.94;;;10.10;75.82
52105;BME280;38103;42.776;23.112;2022-10-04T18:40:21;94731.84;;;10.10;75.44
52105;BME280;38103;42.776;23.112;2022-10-04T18:42:54;94724.38;;;10.07;75.25
52105;BME280;38103;42.776;23.112;2022-10-04T18:47:50;94680.19;;;9.82;74.92
52105;BME280;38103;42.776;23.112;2022-10-04T18:50:23;94718.31;;;10.00;74.60
52105;BME280;38103;42.776;23.112;2022-10-04T19:07:16;94732.31;;;9.61;75.60
52105;BME280;38103;42.776;23.112;2022-10-04T19:10:17;94734.34;;;9.52;75.95
52105;BME280;38103;42.776;23.112;2022-10-04T19:13:28;94727.28;;;9.39;76.63
52105;BME280;38103;42.776;23.112;2022-10-04T19:21:42;94738.09;;;9.17;78.18
52105;BME280;38103;42.776;23.112;2022-10-04T19:25:04;94752.31;;;9.02;78.89
52105;BME280;38103;42.776;23.112;2022-10-04T19:27:11;94752.75;;;8.99;79.42
52105;BME280;38103;42.776;23.112;2022-10-04T19:40:43;94758.00;;;8.65;80.97
52105;BME280;38103;42.776;23.112;2022-10-04T19:43:20;94763.69;;;8.62;81.18
52105;BME280;38103;42.776;23.112;2022-10-04T19:48:49;94765.25;;;8.56;81.13
52105;BME280;38103;42.776;23.112;2022-10-04T19:53:53;94762.03;;;8.54;81.58
52105;BME280;38103;42.776;23.112;2022-10-04T19:56:29;94753.50;;;8.52;81.88
52105;BME280;38103;42.776;23.112;2022-10-04T20:01:26;94760.59;;;8.45;82.27
52105;BME280;38103;42.776;23.112;2022-10-04T20:03:52;94761.00;;;8.48;81.99
52105;BME280;38103;42.776;23.112;2022-10-04T20:06:37;94770.31;;;8.51;81.75
52105;BME280;38103;42.776;23.112;2022-10-04T20:17:40;94777.00;;;8.33;82.37
52105;BME280;38103;42.776;23.112;2022-10-04T20:20:07;94753.44;;;8.11;82.75
52105;BME280;38103;42.776;23.112;2022-10-04T20:22:53;94767.06;;;8.22;83.28
52105;BME280;38103;42.776;23.112;2022-10-04T20:28:07;94778.97;;;8.18;84.53
52105;BME280;38103;42.776;23.112;2022-10-04T20:30:52;94781.59;;;8.11;85.16
52105;BME280;38103;42.776;23.112;2022-10-04T20:39:02;94745.63;;;7.76;85.86
52105;BME280;38103;42.776;23.112;2022-10-04T20:47:16;94789.88;;;8.08;86.00
52105;BME280;38103;42.776;23.112;2022-10-04T20:49:43;94784.22;;;8.04;86.01
52105;BME280;38103;42.776;23.112;2022-10-04T20:52:13;94796.38;;;8.05;85.98
52105;BME280;38103;42.776;23.112;2022-10-04T20:54:48;94781.78;;;8.09;85.84
52105;BME280;38103;42.776;23.112;2022-10-04T20:57:19;94796.19;;;8.13;85.70
52105;BME280;38103;42.776;23.112;2022-10-04T20:59:51;94801.06;;;8.16;85.53
52105;BME280;38103;42.776;23.112;2022-10-04T21:02:19;94804.91;;;8.14;85.49
52105;BME280;38103;42.776;23.112;2022-10-04T21:04:45;94799.22;;;8.10;85.56
52105;BME280;38103;42.776;23.112;2022-10-04T21:07:17;94797.19;;;8.05;86.06
52105;BME280;38103;42.776;23.112;2022-10-04T21:09:43;94779.28;;;7.87;86.04
52105;BME280;38103;42.776;23.112;2022-10-04T21:18:05;94814.97;;;7.97;86.63
52105;BME280;38103;42.776;23.112;2022-10-04T21:23:19;94803.59;;;7.89;87.24
52105;BME280;38103;42.776;23.112;2022-10-04T21:25:47;94800.97;;;7.89;88.00
52105;BME280;38103;42.776;23.112;2022-10-04T21:28:25;94805.84;;;7.92;88.14
52105;BME280;38103;42.776;23.112;2022-10-04T21:30:53;94806.69;;;8.00;87.96
52105;BME280;38103;42.776;23.112;2022-10-04T21:33:18;94799.81;;;7.99;87.95
52105;BME280;38103;42.776;23.112;2022-10-04T21:35:44;94802.44;;;7.99;88.14
52105;BME280;38103;42.776;23.112;2022-10-04T21:38:09;94804.84;;;7.93;88.50
52105;BME280;38103;42.776;23.112;2022-10-04T21:40:35;94795.16;;;8.01;88.48
52105;BME280;38103;42.776;23.112;2022-10-04T21:43:00;94798.97;;;7.98;88.65
52105;BME280;38103;42.776;23.112;2022-10-04T21:45:25;94801.41;;;8.00;88.87
52105;BME280;38103;42.776;23.112;2022-10-04T21:47:51;94797.16;;;7.99;88.83
52105;BME280;38103;42.776;23.112;2022-10-04T21:50:16;94806.69;;;8.00;88.83
52105;BME280;38103;42.776;23.112;2022-10-04T21:52:41;94811.72;;;7.94;89.17
52105;BME280;38103;42.776;23.112;2022-10-04T21:55:07;94810.34;;;7.99;89.07
52105;BME280;38103;42.776;23.112;2022-10-04T21:57:34;94813.56;;;8.01;89.04
52105;BME280;38103;42.776;23.112;2022-10-04T22:00:00;94813.75;;;7.99;88.97
52105;BME280;38103;42.776;23.112;2022-10-04T22:02:25;94816.22;;;8.01;89.06
52105;BME280;38103;42.776;23.112;2022-10-04T22:04:51;94809.91;;;8.02;88.83
52105;BME280;38103;42.776;23.112;2022-10-04T22:07:16;94818.63;;;7.96;89.17
52105;BME280;38103;42.776;23.112;2022-10-04T22:09:41;94812.53;;;7.95;89.52
52105;BME280;38103;42.776;23.112;2022-10-04T22:12:07;94810.50;;;7.90;89.59
52105;BME280;38103;42.776;23.112;2022-10-04T22:14:32;94811.72;;;7.94;89.43
52105;BME280;38103;42.776;23.112;2022-10-04T22:16:57;94825.69;;;7.95;89.38
52105;BME280;38103;42.776;23.112;2022-10-04T22:19:23;94819.81;;;7.93;89.51
52105;BME280;38103;42.776;23.112;2022-10-04T22:21:48;94823.66;;;7.90;89.72
52105;BME280;38103;42.776;23.112;2022-10-04T22:24:16;94821.41;;;7.87;89.93
52105;BME280;38103;42.776;23.112;2022-10-04T22:26:42;94824.66;;;7.89;90.12
52105;BME280;38103;42.776;23.112;2022-10-04T22:29:12;94821.78;;;7.84;90.47
52105;BME280;38103;42.776;23.112;2022-10-04T22:31:38;94832.31;;;7.84;90.77
52105;BME280;38103;42.776;23.112;2022-10-04T22:34:10;94821.78;;;7.84;91.05
52105;BME280;38103;42.776;23.112;2022-10-04T22:36:40;94833.13;;;7.78;91.95
52105;BME280;38103;42.776;23.112;2022-10-04T22:41:38;94825.03;;;7.86;92.41
52105;BME280;38103;42.776;23.112;2022-10-04T22:44:17;94823.44;;;7.85;92.49
52105;BME280;38103;42.776;23.112;2022-10-04T22:46:45;94829.91;;;7.89;92.07
52105;BME280;38103;42.776;23.112;2022-10-04T22:49:14;94827.50;;;7.88;91.59
52105;BME280;38103;42.776;23.112;2022-10-04T22:51:42;94832.56;;;7.89;90.96
52105;BME280;38103;42.776;23.112;2022-10-04T22:54:12;94835.78;;;7.85;90.98
52105;BME280;38103;42.776;23.112;2022-10-04T22:56:39;94835.75;;;7.78;91.23
52105;BME280;38103;42.776;23.112;2022-10-04T22:59:08;94836.75;;;7.77;90.48
52105;BME280;38103;42.776;23.112;2022-10-04T23:01:34;94827.00;;;7.70;90.08
52105;BME280;38103;42.776;23.112;2022-10-04T23:04:00;94840.78;;;7.73;90.16
52105;BME280;38103;42.776;23.112;2022-10-04T23:06:25;94843.56;;;7.64;90.63
52105;BME280;38103;42.776;23.112;2022-10-04T23:08:51;94838.50;;;7.63;90.72